sensor_id;sensor_type;location;lat;lon;timestamp;P1;durP1;ratioP1;P2;durP2;ratioP2
37107;SDS011;23019;49.300;6.846;2022-09-30T00:01:05;2.58;;;1.00;;
37107;SDS011;23019;49.300;6.846;2022-09-30T00:03:06;2.03;;;0.80;;
37107;SDS011;23019;49.300;6.846;2022-09-30T00:05:07;0.70;;;0.70;;
37107;SDS011;23019;49.300;6.846;2022-09-30T00:07:10;1.65;;;0.90;;
37107;SDS011;23019;49.300;6.846;2022-09-30T00:09:12;0.77;;;0.77;;
37107;SDS011;23019;49.300;6.846;2022-09-30T00:11:15;1.00;;;0.90;;
37107;SDS011;23019;49.300;6.846;2022-09-30T00:13:18;2.22;;;0.95;;
37107;SDS011;23019;49.300;6.846;2022-09-30T00:15:19;1.20;;;1.08;;
37107;SDS011;23019;49.300;6.846;2022-09-30T00:17:20;1.23;;;1.05;;
37107;SDS011;23019;49.300;6.846;2022-09-30T00:19:21;1.17;;;1.08;;
37107;SDS011;23019;49.300;6.846;2022-09-30T00:21:21;0.77;;;0.77;;
37107;SDS011;23019;49.300;6.846;2022-09-30T00:23:23;0.80;;;0.80;;
37107;SDS011;23019;49.300;6.846;2022-09-30T00:25:24;1.05;;;0.88;;
37107;SDS011;23019;49.300;6.846;2022-09-30T00:27:25;1.15;;;0.73;;
37107;SDS011;23019;49.300;6.846;2022-09-30T00:29:26;0.73;;;0.68;;
37107;SDS011;23019;49.300;6.846;2022-09-30T00:31:28;1.05;;;1.02;;
37107;SDS011;23019;49.300;6.846;2022-09-30T00:33:32;1.10;;;1.00;;
37107;SDS011;23019;49.300;6.846;2022-09-30T00:35:33;0.90;;;0.75;;
37107;SDS011;23019;49.300;6.846;2022-09-30T00:37:36;1.10;;;1.00;;
37107;SDS011;23019;49.300;6.846;2022-09-30T00:39:36;2.85;;;1.63;;
37107;SDS011;23019;49.300;6.846;2022-09-30T00:41:39;1.05;;;0.90;;
37107;SDS011;23019;49.300;6.846;2022-09-30T00:43:44;0.82;;;0.80;;
37107;SDS011;23019;49.300;6.846;2022-09-30T00:45:55;0.63;;;0.63;;
37107;SDS011;23019;49.300;6.846;2022-09-30T01:00:57;1.10;;;1.00;;
37107;SDS011;23019;49.300;6.846;2022-09-30T01:12:33;0.47;;;0.47;;
37107;SDS011;23019;49.300;6.846;2022-09-30T01:56:44;0.60;;;0.57;;
37107;SDS011;23019;49.300;6.846;2022-09-30T01:59:14;0.70;;;0.57;;
37107;SDS011;23019;49.300;6.846;2022-09-30T02:11:14;0.75;;;0.70;;
37107;SDS011;23019;49.300;6.846;2022-09-30T02:44:19;2.17;;;0.80;;
37107;SDS011;23019;49.300;6.846;2022-09-30T03:09:41;2.75;;;0.70;;
37107;SDS011;23019;49.300;6.846;2022-09-30T03:11:57;0.60;;;0.60;;
37107;SDS011;23019;49.300;6.846;2022-09-30T03:46:58;0.70;;;0.68;;
37107;SDS011;23019;49.300;6.846;2022-09-30T03:57:16;0.60;;;0.60;;
37107;SDS011;23019;49.300;6.846;2022-09-30T03:59:23;0.70;;;0.60;;
37107;SDS011;23019;49.300;6.846;2022-09-30T04:15:07;0.70;;;0.60;;
37107;SDS011;23019;49.300;6.846;2022-09-30T04:24:00;0.82;;;0.65;;
37107;SDS011;23019;49.300;6.846;2022-09-30T04:26:09;0.70;;;0.70;;
37107;SDS011;23019;49.300;6.846;2022-09-30T04:28:14;0.60;;;0.60;;
37107;SDS011;23019;49.300;6.846;2022-09-30T04:33:01;0.80;;;0.80;;
37107;SDS011;23019;49.300;6.846;2022-09-30T04:35:09;0.68;;;0.68;;
37107;SDS011;23019;49.300;6.846;2022-09-30T04:42:27;0.63;;;0.60;;
37107;SDS011;23019;49.300;6.846;2022-09-30T04:44:36;0.60;;;0.60;;
37107;SDS011;23019;49.300;6.846;2022-09-30T04:49:15;1.02;;;0.60;;
37107;SDS011;23019;49.300;6.846;2022-09-30T04:51:39;0.50;;;0.50;;
37107;SDS011;23019;49.300;6.846;2022-09-30T04:53:51;0.50;;;0.50;;
37107;SDS011;23019;49.300;6.846;2022-09-30T04:58:46;0.60;;;0.55;;
37107;SDS011;23019;49.300;6.846;2022-09-30T05:03:12;0.90;;;0.80;;
37107;SDS011;23019;49.300;6.846;2022-09-30T05:05:24;0.70;;;0.70;;
37107;SDS011;23019;49.300;6.846;2022-09-30T05:07:31;0.60;;;0.60;;
37107;SDS011;23019;49.300;6.846;2022-09-30T05:09:37;2.38;;;1.10;;
37107;SDS011;23019;49.300;6.846;2022-09-30T05:16:39;0.47;;;0.45;;
37107;SDS011;23019;49.300;6.846;2022-09-30T05:18:43;0.63;;;0.63;;
37107;SDS011;23019;49.300;6.846;2022-09-30T05:20:48;0.60;;;0.60;;
37107;SDS011;23019;49.300;6.846;2022-09-30T05:23:00;0.82;;;0.82;;
37107;SDS011;23019;49.300;6.846;2022-09-30T05:25:01;0.52;;;0.52;;
37107;SDS011;23019;49.300;6.846;2022-09-30T05:27:05;0.70;;;0.70;;
37107;SDS011;23019;49.300;6.846;2022-09-30T05:29:08;0.65;;;0.65;;
37107;SDS011;23019;49.300;6.846;2022-09-30T05:31:09;0.70;;;0.70;;
37107;SDS011;23019;49.300;6.846;2022-09-30T05:33:11;0.70;;;0.70;;
37107;SDS011;23019;49.300;6.846;2022-09-30T05:35:19;0.73;;;0.70;;
37107;SDS011;23019;49.300;6.846;2022-09-30T05:37:21;0.60;;;0.60;;
37107;SDS011;23019;49.300;6.846;2022-09-30T05:39:31;0.45;;;0.45;;
37107;SDS011;23019;49.300;6.846;2022-09-30T05:41:45;0.60;;;0.60;;
37107;SDS011;23019;49.300;6.846;2022-09-30T05:43:47;0.45;;;0.45;;
37107;SDS011;23019;49.300;6.846;2022-09-30T05:45:52;0.60;;;0.60;;
37107;SDS011;23019;49.300;6.846;2022-09-30T05:48:00;0.73;;;0.73;;
37107;SDS011;23019;49.300;6.846;2022-09-30T05:50:06;0.50;;;0.50;;
37107;SDS011;23019;49.300;6.846;2022-09-30T05:54:42;0.60;;;0.60;;
37107;SDS011;23019;49.300;6.846;2022-09-30T05:56:45;0.55;;;0.40;;
37107;SDS011;23019;49.300;6.846;2022-09-30T05:58:55;0.55;;;0.52;;
37107;SDS011;23019;49.300;6.846;2022-09-30T06:01:02;0.40;;;0.40;;
37107;SDS011;23019;49.300;6.846;2022-09-30T06:03:10;0.63;;;0.57;;
37107;SDS011;23019;49.300;6.846;2022-09-30T06:05:13;0.50;;;0.50;;
37107;SDS011;23019;49.300;6.846;2022-09-30T06:07:14;0.43;;;0.43;;
37107;SDS011;23019;49.300;6.846;2022-09-30T06:09:17;0.40;;;0.40;;
37107;SDS011;23019;49.300;6.846;2022-09-30T06:11:20;1.45;;;0.60;;
37107;SDS011;23019;49.300;6.846;2022-09-30T06:13:29;0.60;;;0.52;;
37107;SDS011;23019;49.300;6.846;2022-09-30T06:15:35;0.60;;;0.50;;
37107;SDS011;23019;49.300;6.846;2022-09-30T06:17:46;0.50;;;0.50;;
37107;SDS011;23019;49.300;6.846;2022-09-30T06:20:03;0.60;;;0.60;;
37107;SDS011;23019;49.300;6.846;2022-09-30T06:25:35;0.50;;;0.50;;
37107;SDS011;23019;49.300;6.846;2022-09-30T06:27:48;0.90;;;0.57;;
37107;SDS011;23019;49.300;6.846;2022-09-30T06:35:16;0.65;;;0.65;;
37107;SDS011;23019;49.300;6.846;2022-09-30T06:37:18;0.57;;;0.57;;
37107;SDS011;23019;49.300;6.846;2022-09-30T06:39:22;0.95;;;0.50;;
37107;SDS011;23019;49.300;6.846;2022-09-30T06:41:22;0.50;;;0.50;;
37107;SDS011;23019;49.300;6.846;2022-09-30T06:43:27;0.73;;;0.50;;
37107;SDS011;23019;49.300;6.846;2022-09-30T06:45:31;0.55;;;0.55;;
37107;SDS011;23019;49.300;6.846;2022-09-30T06:50:57;0.50;;;0.50;;
37107;SDS011;23019;49.300;6.846;2022-09-30T06:53:02;0.50;;;0.50;;
37107;SDS011;23019;49.300;6.846;2022-09-30T06:58:26;0.50;;;0.50;;
37107;SDS011;23019;49.300;6.846;2022-09-30T07:00:30;0.85;;;0.60;;
37107;SDS011;23019;49.300;6.846;2022-09-30T07:02:30;0.50;;;0.50;;
37107;SDS011;23019;49.300;6.846;2022-09-30T07:04:33;0.60;;;0.60;;
37107;SDS011;23019;49.300;6.846;2022-09-30T07:06:34;0.57;;;0.57;;
37107;SDS011;23019;49.300;6.846;2022-09-30T07:08:38;0.60;;;0.60;;
37107;SDS011;23019;49.300;6.846;2022-09-30T07:10:39;0.73;;;0.73;;
37107;SDS011;23019;49.300;6.846;2022-09-30T07:12:40;0.57;;;0.57;;
37107;SDS011;23019;49.300;6.846;2022-09-30T07:14:41;0.70;;;0.70;;
37107;SDS011;23019;49.300;6.846;2022-09-30T07:16:42;0.50;;;0.50;;
37107;SDS011;23019;49.300;6.846;2022-09-30T07:18:44;0.50;;;0.50;;
37107;SDS011;23019;49.300;6.846;2022-09-30T07:20:52;0.95;;;0.50;;
37107;SDS011;23019;49.300;6.846;2022-09-30T07:22:54;0.63;;;0.63;;
37107;SDS011;23019;49.300;6.846;2022-09-30T07:24:55;0.73;;;0.73;;
37107;SDS011;23019;49.300;6.846;2022-09-30T07:26:56;1.17;;;1.08;;
37107;SDS011;23019;49.300;6.846;2022-09-30T07:28:57;0.93;;;0.88;;
37107;SDS011;23019;49.300;6.846;2022-09-30T07:31:00;0.60;;;0.60;;
37107;SDS011;23019;49.300;6.846;2022-09-30T07:33:05;0.70;;;0.70;;
37107;SDS011;23019;49.300;6.846;2022-09-30T07:35:06;1.67;;;0.77;;
37107;SDS011;23019;49.300;6.846;2022-09-30T07:37:06;0.47;;;0.47;;
37107;SDS011;23019;49.300;6.846;2022-09-30T07:39:09;0.47;;;0.47;;
37107;SDS011;23019;49.300;6.846;2022-09-30T07:41:14;0.60;;;0.60;;
37107;SDS011;23019;49.300;6.846;2022-09-30T07:43:17;0.77;;;0.70;;
37107;SDS011;23019;49.300;6.846;2022-09-30T07:45:18;0.60;;;0.60;;
37107;SDS011;23019;49.300;6.846;2022-09-30T07:47:19;0.60;;;0.60;;
37107;SDS011;23019;49.300;6.846;2022-09-30T07:49:19;2.03;;;0.70;;
37107;SDS011;23019;49.300;6.846;2022-09-30T07:51:30;0.98;;;0.70;;
37107;SDS011;23019;49.300;6.846;2022-09-30T07:53:36;0.70;;;0.70;;
37107;SDS011;23019;49.300;6.846;2022-09-30T07:55:36;0.60;;;0.60;;
37107;SDS011;23019;49.300;6.846;2022-09-30T07:57:37;0.80;;;0.60;;
37107;SDS011;23019;49.300;6.846;2022-09-30T07:59:39;0.80;;;0.80;;
37107;SDS011;23019;49.300;6.846;2022-09-30T08:01:40;0.70;;;0.70;;
37107;SDS011;23019;49.300;6.846;2022-09-30T08:03:41;0.68;;;0.68;;
37107;SDS011;23019;49.300;6.846;2022-09-30T08:05:44;2.42;;;0.63;;
37107;SDS011;23019;49.300;6.846;2022-09-30T08:07:44;0.75;;;0.75;;
37107;SDS011;23019;49.300;6.846;2022-09-30T08:09:45;0.45;;;0.40;;
37107;SDS011;23019;49.300;6.846;2022-09-30T08:11:46;0.88;;;0.70;;
37107;SDS011;23019;49.300;6.846;2022-09-30T08:13:50;0.60;;;0.60;;
37107;SDS011;23019;49.300;6.846;2022-09-30T08:15:52;2.35;;;0.63;;
37107;SDS011;23019;49.300;6.846;2022-09-30T08:17:53;0.55;;;0.55;;
37107;SDS011;23019;49.300;6.846;2022-09-30T08:19:53;1.88;;;0.95;;
37107;SDS011;23019;49.300;6.846;2022-09-30T08:21:54;0.65;;;0.65;;
37107;SDS011;23019;49.300;6.846;2022-09-30T08:23:56;0.60;;;0.60;;
37107;SDS011;23019;49.300;6.846;2022-09-30T08:26:15;2.67;;;0.50;;
37107;SDS011;23019;49.300;6.846;2022-09-30T08:28:16;1.13;;;0.70;;
37107;SDS011;23019;49.300;6.846;2022-09-30T08:30:17;2.38;;;0.50;;
37107;SDS011;23019;49.300;6.846;2022-09-30T08:32:18;1.17;;;0.95;;
37107;SDS011;23019;49.300;6.846;2022-09-30T08:34:19;0.85;;;0.85;;
37107;SDS011;23019;49.300;6.846;2022-09-30T08:36:21;0.82;;;0.70;;
37107;SDS011;23019;49.300;6.846;2022-09-30T08:38:23;1.90;;;0.60;;
37107;SDS011;23019;49.300;6.846;2022-09-30T08:40:25;0.77;;;0.60;;
37107;SDS011;23019;49.300;6.846;2022-09-30T08:44:46;1.85;;;0.50;;
37107;SDS011;23019;49.300;6.846;2022-09-30T08:47:03;0.93;;;0.75;;
37107;SDS011;23019;49.300;6.846;2022-09-30T08:51:37;0.60;;;0.60;;
37107;SDS011;23019;49.300;6.846;2022-09-30T08:55:46;0.75;;;0.60;;
37107;SDS011;23019;49.300;6.846;2022-09-30T08:57:47;1.05;;;0.60;;
37107;SDS011;23019;49.300;6.846;2022-09-30T08:59:50;0.77;;;0.77;;
37107;SDS011;23019;49.300;6.846;2022-09-30T09:01:58;1.15;;;0.80;;
37107;SDS011;23019;49.300;6.846;2022-09-30T09:04:10;0.60;;;0.57;;
37107;SDS011;23019;49.300;6.846;2022-09-30T09:10:28;0.60;;;0.60;;
37107;SDS011;23019;49.300;6.846;2022-09-30T09:17:52;0.60;;;0.47;;
37107;SDS011;23019;49.300;6.846;2022-09-30T09:20:15;1.05;;;0.80;;
37107;SDS011;23019;49.300;6.846;2022-09-30T09:22:23;0.60;;;0.52;;
37107;SDS011;23019;49.300;6.846;2022-09-30T10:14:26;0.98;;;0.80;;
37107;SDS011;23019;49.300;6.846;2022-09-30T10:16:31;0.80;;;0.60;;
37107;SDS011;23019;49.300;6.846;2022-09-30T10:18:36;0.82;;;0.68;;
37107;SDS011;23019;49.300;6.846;2022-09-30T10:23:49;0.70;;;0.70;;
37107;SDS011;23019;49.300;6.846;2022-09-30T10:31:42;0.80;;;0.50;;
37107;SDS011;23019;49.300;6.846;2022-09-30T10:33:47;1.70;;;0.50;;
37107;SDS011;23019;49.300;6.846;2022-09-30T10:36:28;1.08;;;0.70;;
37107;SDS011;23019;49.300;6.846;2022-09-30T10:38:36;0.63;;;0.50;;
37107;SDS011;23019;49.300;6.846;2022-09-30T10:40:48;1.00;;;0.93;;
37107;SDS011;23019;49.300;6.846;2022-09-30T10:42:52;2.95;;;0.60;;
37107;SDS011;23019;49.300;6.846;2022-09-30T10:44:55;0.60;;;0.60;;
37107;SDS011;23019;49.300;6.846;2022-09-30T10:46:58;0.80;;;0.80;;
37107;SDS011;23019;49.300;6.846;2022-09-30T10:49:18;1.55;;;0.95;;
37107;SDS011;23019;49.300;6.846;2022-09-30T10:51:38;0.60;;;0.50;;
37107;SDS011;23019;49.300;6.846;2022-09-30T10:53:40;0.60;;;0.60;;
37107;SDS011;23019;49.300;6.846;2022-09-30T13:01:30;0.60;;;0.60;;
37107;SDS011;23019;49.300;6.846;2022-09-30T13:03:28;0.60;;;0.52;;
37107;SDS011;23019;49.300;6.846;2022-09-30T13:20:48;0.75;;;0.50;;
37107;SDS011;23019;49.300;6.846;2022-09-30T13:37:38;1.02;;;0.60;;
37107;SDS011;23019;49.300;6.846;2022-09-30T13:40:00;0.60;;;0.50;;
37107;SDS011;23019;49.300;6.846;2022-09-30T15:01:49;8.07;;;0.70;;
37107;SDS011;23019;49.300;6.846;2022-09-30T15:04:13;16.38;;;2.15;;
37107;SDS011;23019;49.300;6.846;2022-09-30T15:06:19;17.00;;;1.33;;
37107;SDS011;23019;49.300;6.846;2022-09-30T15:08:39;21.55;;;1.58;;
37107;SDS011;23019;49.300;6.846;2022-09-30T15:10:56;21.77;;;1.45;;
37107;SDS011;23019;49.300;6.846;2022-09-30T15:13:12;17.10;;;1.55;;
37107;SDS011;23019;49.300;6.846;2022-09-30T15:17:57;10.63;;;1.30;;
37107;SDS011;23019;49.300;6.846;2022-09-30T15:23:01;9.63;;;0.90;;
37107;SDS011;23019;49.300;6.846;2022-09-30T15:25:10;3.67;;;0.70;;
37107;SDS011;23019;49.300;6.846;2022-09-30T15:27:28;4.03;;;1.63;;
37107;SDS011;23019;49.300;6.846;2022-09-30T15:32:12;7.03;;;1.20;;
37107;SDS011;23019;49.300;6.846;2022-09-30T15:34:28;5.20;;;1.00;;
37107;SDS011;23019;49.300;6.846;2022-09-30T15:36:33;9.90;;;0.90;;
37107;SDS011;23019;49.300;6.846;2022-09-30T15:41:46;5.82;;;1.02;;
37107;SDS011;23019;49.300;6.846;2022-09-30T15:43:48;3.55;;;0.70;;
37107;SDS011;23019;49.300;6.846;2022-09-30T15:45:53;1.73;;;0.90;;
37107;SDS011;23019;49.300;6.846;2022-09-30T15:47:58;3.95;;;1.08;;
37107;SDS011;23019;49.300;6.846;2022-09-30T15:57:48;1.70;;;0.65;;
37107;SDS011;23019;49.300;6.846;2022-09-30T16:00:00;2.60;;;0.70;;
37107;SDS011;23019;49.300;6.846;2022-09-30T16:02:11;2.08;;;0.80;;
37107;SDS011;23019;49.300;6.846;2022-09-30T16:09:24;3.88;;;0.70;;
37107;SDS011;23019;49.300;6.846;2022-09-30T16:11:41;2.22;;;1.08;;
37107;SDS011;23019;49.300;6.846;2022-09-30T16:14:07;2.95;;;1.17;;
37107;SDS011;23019;49.300;6.846;2022-09-30T16:16:27;3.17;;;1.02;;
37107;SDS011;23019;49.300;6.846;2022-09-30T16:18:36;1.25;;;0.93;;
37107;SDS011;23019;49.300;6.846;2022-09-30T16:21:04;2.72;;;1.20;;
37107;SDS011;23019;49.300;6.846;2022-09-30T16:23:04;2.13;;;1.30;;
37107;SDS011;23019;49.300;6.846;2022-09-30T16:28:39;2.10;;;1.35;;
37107;SDS011;23019;49.300;6.846;2022-09-30T16:30:56;5.53;;;2.28;;
37107;SDS011;23019;49.300;6.846;2022-09-30T16:33:15;2.13;;;1.35;;
37107;SDS011;23019;49.300;6.846;2022-09-30T16:35:34;2.10;;;1.50;;
37107;SDS011;23019;49.300;6.846;2022-09-30T16:37:43;3.92;;;1.83;;
37107;SDS011;23019;49.300;6.846;2022-09-30T16:39:46;17.20;;;1.40;;
37107;SDS011;23019;49.300;6.846;2022-09-30T16:41:50;14.00;;;2.05;;
37107;SDS011;23019;49.300;6.846;2022-09-30T16:43:53;5.68;;;1.40;;
37107;SDS011;23019;49.300;6.846;2022-09-30T16:45:57;21.17;;;2.03;;
37107;SDS011;23019;49.300;6.846;2022-09-30T16:47:59;3.75;;;1.30;;
37107;SDS011;23019;49.300;6.846;2022-09-30T16:52:42;2.85;;;1.40;;
37107;SDS011;23019;49.300;6.846;2022-09-30T16:54:42;16.13;;;1.98;;
37107;SDS011;23019;49.300;6.846;2022-09-30T16:56:43;15.95;;;1.95;;
37107;SDS011;23019;49.300;6.846;2022-09-30T16:58:44;11.02;;;2.28;;
37107;SDS011;23019;49.300;6.846;2022-09-30T17:00:48;14.90;;;1.77;;
37107;SDS011;23019;49.300;6.846;2022-09-30T17:02:49;12.00;;;1.95;;
37107;SDS011;23019;49.300;6.846;2022-09-30T17:04:50;14.40;;;1.60;;
37107;SDS011;23019;49.300;6.846;2022-09-30T17:06:55;9.30;;;1.48;;
37107;SDS011;23019;49.300;6.846;2022-09-30T17:08:59;5.88;;;1.67;;
37107;SDS011;23019;49.300;6.846;2022-09-30T17:11:00;3.70;;;0.88;;
37107;SDS011;23019;49.300;6.846;2022-09-30T17:13:04;7.75;;;2.67;;
37107;SDS011;23019;49.300;6.846;2022-09-30T17:15:07;5.97;;;1.00;;
37107;SDS011;23019;49.300;6.846;2022-09-30T17:17:10;5.20;;;1.50;;
37107;SDS011;23019;49.300;6.846;2022-09-30T17:19:11;3.20;;;1.15;;
37107;SDS011;23019;49.300;6.846;2022-09-30T17:21:12;3.75;;;0.98;;
37107;SDS011;23019;49.300;6.846;2022-09-30T17:23:16;3.78;;;1.25;;
37107;SDS011;23019;49.300;6.846;2022-09-30T17:25:19;2.58;;;1.48;;
37107;SDS011;23019;49.300;6.846;2022-09-30T17:27:20;5.97;;;1.38;;
37107;SDS011;23019;49.300;6.846;2022-09-30T17:29:21;5.90;;;1.25;;
37107;SDS011;23019;49.300;6.846;2022-09-30T17:31:26;6.90;;;1.30;;
37107;SDS011;23019;49.300;6.846;2022-09-30T17:33:34;8.65;;;1.30;;
37107;SDS011;23019;49.300;6.846;2022-09-30T17:35:40;4.75;;;1.63;;
37107;SDS011;23019;49.300;6.846;2022-09-30T17:37:43;2.88;;;1.73;;
37107;SDS011;23019;49.300;6.846;2022-09-30T17:39:44;4.35;;;1.10;;
37107;SDS011;23019;49.300;6.846;2022-09-30T17:41:45;1.35;;;1.08;;
37107;SDS011;23019;49.300;6.846;2022-09-30T17:44:04;1.15;;;1.00;;
37107;SDS011;23019;49.300;6.846;2022-09-30T17:46:04;4.85;;;1.10;;
37107;SDS011;23019;49.300;6.846;2022-09-30T17:48:05;2.75;;;1.23;;
37107;SDS011;23019;49.300;6.846;2022-09-30T17:50:08;4.13;;;1.30;;
37107;SDS011;23019;49.300;6.846;2022-09-30T17:52:09;1.63;;;1.00;;
37107;SDS011;23019;49.300;6.846;2022-09-30T17:54:13;4.00;;;1.63;;
37107;SDS011;23019;49.300;6.846;2022-09-30T17:56:18;2.05;;;1.20;;
37107;SDS011;23019;49.300;6.846;2022-09-30T17:58:21;2.60;;;1.27;;
37107;SDS011;23019;49.300;6.846;2022-09-30T18:00:25;3.35;;;1.42;;
37107;SDS011;23019;49.300;6.846;2022-09-30T18:02:26;2.35;;;1.08;;
37107;SDS011;23019;49.300;6.846;2022-09-30T18:04:30;0.70;;;0.70;;
37107;SDS011;23019;49.300;6.846;2022-09-30T18:06:31;2.42;;;0.88;;
37107;SDS011;23019;49.300;6.846;2022-09-30T18:08:33;4.97;;;1.48;;
37107;SDS011;23019;49.300;6.846;2022-09-30T18:10:35;1.17;;;0.75;;
37107;SDS011;23019;49.300;6.846;2022-09-30T18:12:37;2.08;;;1.33;;
37107;SDS011;23019;49.300;6.846;2022-09-30T18:14:38;3.58;;;1.20;;
37107;SDS011;23019;49.300;6.846;2022-09-30T18:16:39;1.13;;;0.75;;
37107;SDS011;23019;49.300;6.846;2022-09-30T18:18:39;2.72;;;0.70;;
37107;SDS011;23019;49.300;6.846;2022-09-30T18:20:43;1.15;;;0.90;;
37107;SDS011;23019;49.300;6.846;2022-09-30T18:22:46;1.70;;;1.08;;
37107;SDS011;23019;49.300;6.846;2022-09-30T18:24:50;1.40;;;0.77;;
37107;SDS011;23019;49.300;6.846;2022-09-30T18:27:14;1.27;;;0.90;;
37107;SDS011;23019;49.300;6.846;2022-09-30T18:29:15;0.90;;;0.77;;
37107;SDS011;23019;49.300;6.846;2022-09-30T18:31:16;2.70;;;1.02;;
37107;SDS011;23019;49.300;6.846;2022-09-30T18:33:27;0.60;;;0.57;;
37107;SDS011;23019;49.300;6.846;2022-09-30T18:35:27;3.67;;;0.75;;
37107;SDS011;23019;49.300;6.846;2022-09-30T18:37:29;4.10;;;0.90;;
37107;SDS011;23019;49.300;6.846;2022-09-30T18:39:32;1.63;;;0.60;;
37107;SDS011;23019;49.300;6.846;2022-09-30T18:41:34;1.95;;;0.70;;
37107;SDS011;23019;49.300;6.846;2022-09-30T18:43:37;4.93;;;1.10;;
37107;SDS011;23019;49.300;6.846;2022-09-30T18:45:38;1.23;;;0.70;;
37107;SDS011;23019;49.300;6.846;2022-09-30T18:47:39;3.03;;;1.02;;
37107;SDS011;23019;49.300;6.846;2022-09-30T18:49:43;1.30;;;0.70;;
37107;SDS011;23019;49.300;6.846;2022-09-30T18:51:44;1.40;;;0.73;;
37107;SDS011;23019;49.300;6.846;2022-09-30T18:53:45;2.05;;;0.93;;
37107;SDS011;23019;49.300;6.846;2022-09-30T18:55:50;1.17;;;0.90;;
37107;SDS011;23019;49.300;6.846;2022-09-30T18:57:54;1.80;;;0.95;;
37107;SDS011;23019;49.300;6.846;2022-09-30T18:59:55;1.02;;;0.93;;
37107;SDS011;23019;49.300;6.846;2022-09-30T19:01:58;1.80;;;0.85;;
37107;SDS011;23019;49.300;6.846;2022-09-30T19:04:05;3.17;;;0.98;;
37107;SDS011;23019;49.300;6.846;2022-09-30T19:06:06;1.58;;;0.70;;
37107;SDS011;23019;49.300;6.846;2022-09-30T19:08:08;0.60;;;0.60;;
37107;SDS011;23019;49.300;6.846;2022-09-30T19:10:09;2.10;;;1.05;;
37107;SDS011;23019;49.300;6.846;2022-09-30T19:12:12;0.93;;;0.80;;
37107;SDS011;23019;49.300;6.846;2022-09-30T19:14:16;1.15;;;0.98;;
37107;SDS011;23019;49.300;6.846;2022-09-30T19:16:18;2.80;;;1.25;;
37107;SDS011;23019;49.300;6.846;2022-09-30T19:18:21;1.20;;;0.70;;
37107;SDS011;23019;49.300;6.846;2022-09-30T19:20:25;0.80;;;0.75;;
37107;SDS011;23019;49.300;6.846;2022-09-30T19:22:28;1.60;;;0.70;;
37107;SDS011;23019;49.300;6.846;2022-09-30T19:24:31;1.15;;;0.60;;
37107;SDS011;23019;49.300;6.846;2022-09-30T19:26:34;1.58;;;0.60;;
37107;SDS011;23019;49.300;6.846;2022-09-30T19:28:35;1.15;;;0.90;;
37107;SDS011;23019;49.300;6.846;2022-09-30T19:30:36;1.05;;;0.73;;
37107;SDS011;23019;49.300;6.846;2022-09-30T19:32:41;0.70;;;0.68;;
37107;SDS011;23019;49.300;6.846;2022-09-30T19:34:41;1.88;;;0.75;;
37107;SDS011;23019;49.300;6.846;2022-09-30T19:36:42;0.80;;;0.60;;
37107;SDS011;23019;49.300;6.846;2022-09-30T19:38:46;4.45;;;0.85;;
37107;SDS011;23019;49.300;6.846;2022-09-30T19:41:10;1.38;;;1.23;;
37107;SDS011;23019;49.300;6.846;2022-09-30T19:43:11;1.40;;;0.82;;
37107;SDS011;23019;49.300;6.846;2022-09-30T19:45:12;2.33;;;0.90;;
37107;SDS011;23019;49.300;6.846;2022-09-30T19:47:15;3.50;;;0.98;;
37107;SDS011;23019;49.300;6.846;2022-09-30T19:49:21;1.17;;;0.90;;
37107;SDS011;23019;49.300;6.846;2022-09-30T19:51:22;1.70;;;0.88;;
37107;SDS011;23019;49.300;6.846;2022-09-30T19:53:24;1.33;;;1.00;;
37107;SDS011;23019;49.300;6.846;2022-09-30T19:55:26;0.98;;;0.77;;
37107;SDS011;23019;49.300;6.846;2022-09-30T19:57:32;1.52;;;1.13;;
37107;SDS011;23019;49.300;6.846;2022-09-30T19:59:38;1.33;;;1.00;;
37107;SDS011;23019;49.300;6.846;2022-09-30T20:01:38;3.22;;;0.77;;
37107;SDS011;23019;49.300;6.846;2022-09-30T20:03:41;1.38;;;0.80;;
37107;SDS011;23019;49.300;6.846;2022-09-30T20:05:42;1.15;;;0.82;;
37107;SDS011;23019;49.300;6.846;2022-09-30T20:07:45;2.65;;;0.98;;
37107;SDS011;23019;49.300;6.846;2022-09-30T20:09:49;1.63;;;1.15;;
37107;SDS011;23019;49.300;6.846;2022-09-30T20:11:53;2.75;;;1.20;;
37107;SDS011;23019;49.300;6.846;2022-09-30T20:13:57;1.25;;;0.80;;
37107;SDS011;23019;49.300;6.846;2022-09-30T20:16:17;0.82;;;0.77;;
37107;SDS011;23019;49.300;6.846;2022-09-30T20:18:21;1.15;;;0.90;;
37107;SDS011;23019;49.300;6.846;2022-09-30T20:20:25;2.33;;;1.13;;
37107;SDS011;23019;49.300;6.846;2022-09-30T20:22:35;3.60;;;1.20;;
37107;SDS011;23019;49.300;6.846;2022-09-30T20:24:36;0.98;;;0.73;;
37107;SDS011;23019;49.300;6.846;2022-09-30T20:26:41;1.38;;;0.90;;
37107;SDS011;23019;49.300;6.846;2022-09-30T20:28:42;2.65;;;1.02;;
37107;SDS011;23019;49.300;6.846;2022-09-30T20:30:43;1.08;;;0.98;;
37107;SDS011;23019;49.300;6.846;2022-09-30T20:32:45;2.00;;;1.40;;
37107;SDS011;23019;49.300;6.846;2022-09-30T20:34:48;1.40;;;1.00;;
37107;SDS011;23019;49.300;6.846;2022-09-30T20:36:51;2.17;;;1.17;;
37107;SDS011;23019;49.300;6.846;2022-09-30T20:38:54;3.65;;;1.10;;
37107;SDS011;23019;49.300;6.846;2022-09-30T20:41:01;1.98;;;1.42;;
37107;SDS011;23019;49.300;6.846;2022-09-30T20:43:02;1.42;;;1.25;;
37107;SDS011;23019;49.300;6.846;2022-09-30T20:45:06;2.10;;;1.10;;
37107;SDS011;23019;49.300;6.846;2022-09-30T20:47:11;1.35;;;1.10;;
37107;SDS011;23019;49.300;6.846;2022-09-30T20:49:12;1.50;;;1.20;;
37107;SDS011;23019;49.300;6.846;2022-09-30T20:51:14;1.63;;;1.15;;
37107;SDS011;23019;49.300;6.846;2022-09-30T20:53:18;2.53;;;1.45;;
37107;SDS011;23019;49.300;6.846;2022-09-30T20:55:22;1.40;;;1.30;;
37107;SDS011;23019;49.300;6.846;2022-09-30T20:57:23;1.17;;;1.00;;
37107;SDS011;23019;49.300;6.846;2022-09-30T20:59:23;1.52;;;1.13;;
37107;SDS011;23019;49.300;6.846;2022-09-30T21:01:24;1.27;;;1.10;;
37107;SDS011;23019;49.300;6.846;2022-09-30T21:03:25;1.05;;;0.95;;
37107;SDS011;23019;49.300;6.846;2022-09-30T21:05:26;1.20;;;1.10;;
37107;SDS011;23019;49.300;6.846;2022-09-30T21:07:30;1.63;;;1.20;;
37107;SDS011;23019;49.300;6.846;2022-09-30T21:09:30;1.25;;;1.00;;
37107;SDS011;23019;49.300;6.846;2022-09-30T21:11:36;1.52;;;1.20;;
37107;SDS011;23019;49.300;6.846;2022-09-30T21:13:40;1.17;;;1.02;;
37107;SDS011;23019;49.300;6.846;2022-09-30T21:15:56;2.65;;;1.20;;
37107;SDS011;23019;49.300;6.846;2022-09-30T21:17:59;1.38;;;1.23;;
37107;SDS011;23019;49.300;6.846;2022-09-30T21:20:00;1.30;;;1.20;;
37107;SDS011;23019;49.300;6.846;2022-09-30T21:22:03;1.65;;;1.13;;
37107;SDS011;23019;49.300;6.846;2022-09-30T21:24:04;1.30;;;1.20;;
37107;SDS011;23019;49.300;6.846;2022-09-30T21:26:10;1.30;;;1.15;;
37107;SDS011;23019;49.300;6.846;2022-09-30T21:28:12;1.63;;;1.23;;
37107;SDS011;23019;49.300;6.846;2022-09-30T21:30:13;1.23;;;1.05;;
37107;SDS011;23019;49.300;6.846;2022-09-30T21:32:15;2.17;;;0.90;;
37107;SDS011;23019;49.300;6.846;2022-09-30T21:34:16;1.65;;;1.25;;
37107;SDS011;23019;49.300;6.846;2022-09-30T21:36:18;2.28;;;1.23;;
37107;SDS011;23019;49.300;6.846;2022-09-30T21:38:21;3.00;;;1.20;;
37107;SDS011;23019;49.300;6.846;2022-09-30T21:40:22;4.95;;;1.20;;
37107;SDS011;23019;49.300;6.846;2022-09-30T21:42:28;3.33;;;1.27;;
37107;SDS011;23019;49.300;6.846;2022-09-30T21:44:28;3.50;;;1.83;;
37107;SDS011;23019;49.300;6.846;2022-09-30T21:46:29;1.30;;;1.20;;
37107;SDS011;23019;49.300;6.846;2022-09-30T21:48:30;1.10;;;1.00;;
37107;SDS011;23019;49.300;6.846;2022-09-30T21:50:36;2.97;;;0.90;;
37107;SDS011;23019;49.300;6.846;2022-09-30T21:52:37;1.83;;;1.17;;
37107;SDS011;23019;49.300;6.846;2022-09-30T21:54:41;1.05;;;0.95;;
37107;SDS011;23019;49.300;6.846;2022-09-30T21:56:45;1.25;;;1.10;;
37107;SDS011;23019;49.300;6.846;2022-09-30T21:58:54;1.40;;;1.30;;
37107;SDS011;23019;49.300;6.846;2022-09-30T22:00:58;4.70;;;1.10;;
37107;SDS011;23019;49.300;6.846;2022-09-30T22:03:00;0.98;;;0.88;;